Time;durP1;ratioP1;P1;durP2;ratioP2;P2;SDS_P1;SDS_P2;PMS_P1;PMS_P2;Temp;Humidity;BMP_temperature;BMP_pressure;BME280_temperature;BME280_humidity;BME280_pressure;Samples;Min_cycle;Max_cycle;Signal;HPM_P1;HPM_P2
2022/01/24 00:01:42;;;;;;;39.75;35.45;;;-4.40;95.10;-5.10;100256.00;;;;5015786;28;87540;-61
2022/01/24 00:04:09;;;;;;;38.88;34.88;;;-4.40;95.10;-5.10;100249.00;;;;5020628;28;87011;-61
2022/01/24 00:06:36;;;;;;;38.08;33.95;;;-4.40;95.00;-5.10;100252.00;;;;5021042;28;87334;-61
2022/01/24 00:09:05;;;;;;;39.40;35.30;;;-4.40;95.10;-5.10;100247.00;;;;5020199;28;87810;-61
2022/01/24 00:11:45;;;;;;;38.67;34.47;;;-4.40;95.30;-5.10;100250.00;;;;5020105;28;87438;-61
2022/01/24 00:27:25;;;;;;;38.42;34.33;;;-4.60;95.10;-5.30;100263.00;;;;5017835;28;87811;-61
2022/01/24 00:29:51;;;;;;;38.25;34.25;;;-4.60;95.20;-5.30;100268.00;;;;5018732;28;87688;-61
2022/01/24 00:32:17;;;;;;;38.95;34.85;;;-4.70;95.30;-5.30;100259.00;;;;5020165;28;87457;-60
2022/01/24 00:34:44;;;;;;;37.70;33.72;;;-4.70;95.30;-5.30;100258.00;;;;5019881;28;87125;-60
2022/01/24 00:37:10;;;;;;;37.13;33.30;;;-4.70;95.30;-5.30;100258.00;;;;5019624;28;86301;-61
2022/01/24 00:39:37;;;;;;;38.55;34.55;;;-4.70;95.40;-5.30;100265.00;;;;5015534;28;87650;-61
2022/01/24 00:44:46;;;;;;;38.42;34.42;;;-4.70;95.50;-5.40;100273.00;;;;5019476;28;88636;-61
2022/01/24 00:53:01;;;;;;;35.25;31.45;;;-4.80;95.40;-5.40;100257.00;;;;5019525;28;88152;-60
2022/01/24 00:53:11;;;;;;;36.22;32.53;;;-4.80;95.50;-5.40;100257.00;;;;5017168;28;87349;-61
2022/01/24 00:55:39;;;;;;;34.40;30.90;;;-4.80;95.40;-5.40;100270.00;;;;5019389;28;87682;-61
2022/01/24 00:58:05;;;;;;;35.38;31.77;;;-4.80;95.40;-5.50;100264.00;;;;5019861;28;87597;-61
2022/01/24 01:00:31;;;;;;;36.17;32.45;;;-4.80;95.40;-5.50;100277.00;;;;5019024;28;87738;-61
2022/01/24 01:02:57;;;;;;;34.20;30.85;;;-4.90;95.30;-5.60;100266.00;;;;5019857;28;87506;-61
2022/01/24 01:08:12;;;;;;;33.97;30.38;;;-5.00;95.30;-5.60;100268.00;;;;5009371;28;87295;-61
2022/01/24 01:18:54;;;;;;;32.25;28.95;;;-5.00;95.20;-5.70;100272.00;;;;5016687;28;87059;-61
2022/01/24 01:21:21;;;;;;;32.75;29.35;;;-5.00;95.30;-5.70;100267.00;;;;5019854;28;87647;-61
2022/01/24 01:23:53;;;;;;;31.27;28.05;;;-5.00;95.20;-5.70;100275.00;;;;5019237;28;87627;-61
2022/01/24 01:26:30;;;;;;;31.08;27.98;;;-5.00;95.10;-5.70;100263.00;;;;5018574;28;87074;-61
2022/01/24 01:29:02;;;;;;;32.20;28.80;;;-5.00;95.10;-5.70;100266.00;;;;5019860;28;86681;-61
2022/01/24 01:31:44;;;;;;;33.00;29.52;;;-5.00;95.10;-5.70;100263.00;;;;5019480;28;88855;-61
2022/01/24 01:55:40;;;;;;;31.75;28.30;;;-5.00;95.40;-5.70;100280.00;;;;5022909;28;87287;-61
2022/01/24 01:58:08;;;;;;;31.67;28.37;;;-5.00;95.00;-5.70;100276.00;;;;5022449;28;87484;-61
2022/01/24 02:00:40;;;;;;;31.73;28.42;;;-5.00;95.10;-5.70;100284.00;;;;5021985;28;87029;-61
2022/01/24 02:03:07;;;;;;;31.55;28.30;;;-5.10;95.00;-5.70;100274.00;;;;5021599;28;88331;-61
2022/01/24 02:05:33;;;;;;;29.85;26.75;;;-5.10;95.00;-5.70;100281.00;;;;5022679;28;88315;-61
2022/01/24 02:07:59;;;;;;;29.77;26.65;;;-5.10;95.00;-5.70;100279.00;;;;5022671;28;87431;-61
2022/01/24 02:10:26;;;;;;;28.73;25.73;;;-5.10;95.00;-5.70;100287.00;;;;5021577;28;87485;-61
2022/01/24 02:12:55;;;;;;;28.83;25.85;;;-5.00;95.00;-5.70;100289.00;;;;5021833;28;88196;-61
2022/01/24 02:15:36;;;;;;;28.75;25.85;;;-5.00;94.90;-5.80;100306.00;;;;5021537;28;87381;-61
2022/01/24 02:25:57;;;;;;;27.27;24.52;;;-5.10;95.20;-5.80;100308.00;;;;5021480;28;88008;-61
2022/01/24 02:28:26;;;;;;;30.13;25.88;;;-5.10;95.10;-5.80;100301.00;;;;5021482;28;88670;-61
2022/01/24 02:33:24;;;;;;;27.85;24.95;;;-5.10;95.00;-5.80;100306.00;;;;5022092;28;87675;-61
2022/01/24 02:35:51;;;;;;;28.73;25.65;;;-5.10;95.30;-5.80;100296.00;;;;5021163;28;87404;-61
2022/01/24 02:38:31;;;;;;;29.20;26.10;;;-5.10;95.10;-5.80;100278.00;;;;5020838;28;86989;-61
2022/01/24 02:49:14;;;;;;;28.48;25.50;;;-5.20;95.10;-5.80;100292.00;;;;5022143;28;87304;-59
2022/01/24 02:51:46;;;;;;;29.52;26.30;;;-5.20;95.20;-5.80;100281.00;;;;5021447;28;87002;-59
2022/01/24 02:54:29;;;;;;;30.67;25.02;;;-5.10;95.10;-5.80;100299.00;;;;5021391;28;88758;-60
2022/01/24 02:56:55;;;;;;;26.70;23.92;;;-5.10;95.10;-5.80;100297.00;;;;5021304;28;89074;-60
2022/01/24 02:59:22;;;;;;;27.67;24.73;;;-5.10;95.10;-5.80;100294.00;;;;5020649;28;87090;-60
2022/01/24 03:01:48;;;;;;;29.50;26.38;;;-5.10;95.00;-5.80;100283.00;;;;5019990;28;87099;-60
2022/01/24 03:04:15;;;;;;;26.75;23.92;;;-5.10;95.00;-5.80;100297.00;;;;5021392;28;87585;-59
2022/01/24 03:06:41;;;;;;;27.33;24.58;;;-5.10;94.80;-5.80;100294.00;;;;5022003;28;87735;-60
2022/01/24 03:09:08;;;;;;;28.70;25.60;;;-5.20;94.80;-5.80;100283.00;;;;5021029;28;87548;-60
2022/01/24 03:14:23;;;;;;;29.23;26.13;;;-5.20;95.00;-5.90;100269.00;;;;5020981;28;88886;-60
2022/01/24 03:16:50;;;;;;;31.13;26.15;;;-5.20;95.00;-5.90;100280.00;;;;5021185;28;87551;-60
2022/01/24 03:19:17;;;;;;;29.10;25.98;;;-5.20;95.00;-5.90;100276.00;;;;5019961;28;88413;-60
2022/01/24 03:21:43;;;;;;;28.20;25.17;;;-5.20;94.90;-5.90;100279.00;;;;5021407;28;87009;-59
2022/01/24 03:24:13;;;;;;;27.77;24.58;;;-5.20;94.90;-5.90;100271.00;;;;5019553;28;87716;-60
2022/01/24 03:26:41;;;;;;;26.45;23.75;;;-5.20;94.80;-5.90;100276.00;;;;5020256;28;88675;-60
2022/01/24 03:29:08;;;;;;;27.20;24.40;;;-5.20;94.80;-5.90;100283.00;;;;5016644;28;87085;-61
2022/01/24 03:31:36;;;;;;;26.50;23.73;;;-5.20;94.60;-6.00;100270.00;;;;5020852;28;87510;-60
2022/01/24 03:34:03;;;;;;;27.98;24.98;;;-5.30;94.70;-5.90;100263.00;;;;5020626;28;87696;-60
2022/01/24 03:36:29;;;;;;;26.90;24.10;;;-5.30;94.80;-5.90;100258.00;;;;5020692;28;87368;-60
2022/01/24 03:38:55;;;;;;;26.20;23.50;;;-5.30;94.80;-5.90;100265.00;;;;5019058;28;87731;-60
2022/01/24 03:41:22;;;;;;;27.25;24.52;;;-5.20;94.80;-5.90;100258.00;;;;5020951;28;87758;-60
2022/01/24 03:43:48;;;;;;;27.98;25.05;;;-5.20;94.80;-5.90;100258.00;;;;5018538;28;89566;-61
2022/01/24 03:46:27;;;;;;;29.00;25.17;;;-5.20;94.70;-5.90;100244.00;;;;5020697;28;89024;-60
2022/01/24 03:48:56;;;;;;;28.45;25.45;;;-5.20;94.80;-5.90;100239.00;;;;5020768;28;86999;-60
2022/01/24 03:51:24;;;;;;;26.02;23.33;;;-5.20;94.70;-5.90;100243.00;;;;5020787;28;87599;-61
2022/01/24 03:53:50;;;;;;;29.02;26.13;;;-5.20;94.60;-5.90;100245.00;;;;5020552;28;87867;-61
2022/01/24 03:56:17;;;;;;;30.02;26.67;;;-5.20;94.60;-5.90;100235.00;;;;5020422;28;87517;-60
2022/01/24 03:58:46;;;;;;;28.63;25.65;;;-5.20;94.80;-5.90;100239.00;;;;5020157;28;87063;-61
2022/01/24 04:01:12;;;;;;;28.40;25.42;;;-5.20;94.70;-5.80;100251.00;;;;5019092;28;86679;-61
2022/01/24 04:03:39;;;;;;;29.40;26.30;;;-5.10;94.80;-5.80;100257.00;;;;5020085;28;87656;-61
2022/01/24 04:06:06;;;;;;;28.85;25.75;;;-5.10;94.70;-5.80;100260.00;;;;5002608;28;88342;-61
2022/01/24 04:08:32;;;;;;;26.73;24.02;;;-5.10;94.70;-5.80;100261.00;;;;5019788;28;87868;-61
2022/01/24 04:11:00;;;;;;;29.77;26.58;;;-5.10;94.60;-5.80;100251.00;;;;5019136;28;87288;-61
2022/01/24 04:13:31;;;;;;;30.30;27.10;;;-5.10;94.70;-5.80;100262.00;;;;5020007;28;87036;-61
2022/01/24 04:21:36;;;;;;;30.08;27.02;;;-5.30;95.00;-5.90;100261.00;;;;5020296;28;87735;-61
2022/01/24 04:24:08;;;;;;;30.63;27.48;;;-5.30;95.10;-6.00;100254.00;;;;5019919;28;88511;-61
2022/01/24 04:26:35;;;;;;;31.85;28.55;;;-5.30;95.20;-5.90;100262.00;;;;5018601;28;88570;-61
2022/01/24 04:29:03;;;;;;;29.60;26.55;;;-5.20;95.30;-5.90;100257.00;;;;5019982;28;87089;-61
2022/01/24 04:31:30;;;;;;;29.85;26.65;;;-5.20;95.20;-5.90;100249.00;;;;5019976;28;87340;-61
2022/01/24 04:33:57;;;;;;;29.58;26.38;;;-5.20;95.20;-5.90;100254.00;;;;5019390;28;88680;-61
2022/01/24 04:36:25;;;;;;;30.42;27.23;;;-5.20;95.20;-5.90;100262.00;;;;5020005;28;88248;-61
2022/01/24 04:38:52;;;;;;;29.98;26.88;;;-5.20;95.20;-5.80;100274.00;;;;5019737;28;87409;-61
2022/01/24 04:41:25;;;;;;;30.90;27.70;;;-5.20;95.00;-5.80;100263.00;;;;5018699;28;87416;-61
2022/01/24 04:47:20;;;;;;;31.23;28.05;;;-5.10;95.10;-5.80;100268.00;;;;5019955;28;87497;-61
2022/01/24 04:52:30;;;;;;;31.63;28.33;;;-5.10;95.10;-5.80;100269.00;;;;5020208;28;86177;-61
2022/01/24 04:54:57;;;;;;;29.85;26.75;;;-5.10;95.20;-5.80;100267.00;;;;5019552;28;87664;-62
2022/01/24 04:57:26;;;;;;;33.00;29.23;;;-5.10;95.20;-5.80;100273.00;;;;5018870;28;87824;-62
2022/01/24 04:59:56;;;;;;;33.13;29.63;;;-5.10;95.30;-5.90;100273.00;;;;5017479;28;88108;-61
2022/01/24 05:02:23;;;;;;;34.70;29.85;;;-5.20;95.30;-5.90;100286.00;;;;5017827;28;87029;-61
2022/01/24 05:04:52;;;;;;;33.30;29.95;;;-5.20;95.40;-5.90;100278.00;;;;5019129;28;87694;-61
2022/01/24 05:07:18;;;;;;;33.47;29.90;;;-5.20;95.60;-5.90;100278.00;;;;5018370;28;87455;-61
2022/01/24 05:25:57;;;;;;;45.90;40.17;;;-5.20;96.20;-5.80;100290.00;;;;5022992;28;89943;-58
2022/01/24 05:28:24;;;;;;;50.53;42.55;;;-5.20;96.20;-5.90;100285.00;;;;5025429;28;88608;-58
2022/01/24 05:30:51;;;;;;;57.38;47.30;;;-5.20;96.50;-5.90;100291.00;;;;5025904;28;87088;-59
2022/01/24 05:33:18;;;;;;;56.67;47.28;;;-5.20;96.50;-5.90;100281.00;;;;5025703;28;87026;-57
2022/01/24 05:35:44;;;;;;;60.92;50.42;;;-5.20;96.70;-5.90;100283.00;;;;5021401;28;87695;-59
2022/01/24 05:38:10;;;;;;;61.70;52.30;;;-5.20;96.70;-5.90;100290.00;;;;5024322;28;87251;-62
2022/01/24 05:40:38;;;;;;;62.85;51.53;;;-5.20;96.80;-5.90;100295.00;;;;5023734;28;87770;-62
2022/01/24 05:43:06;;;;;;;64.80;52.42;;;-5.20;96.90;-5.90;100290.00;;;;5025338;28;86539;-62
2022/01/24 05:45:34;;;;;;;63.63;53.22;;;-5.20;96.90;-5.90;100300.00;;;;5025310;28;87648;-62
2022/01/24 05:48:01;;;;;;;63.05;51.63;;;-5.30;97.00;-5.90;100303.00;;;;5025242;28;87294;-61
2022/01/24 05:50:27;;;;;;;54.33;45.90;;;-5.20;97.00;-5.90;100296.00;;;;5024972;28;88010;-62
2022/01/24 05:52:53;;;;;;;53.72;45.70;;;-5.20;97.00;-5.80;100291.00;;;;5025764;28;87354;-62
2022/01/24 05:55:19;;;;;;;49.83;43.00;;;-5.20;96.90;-5.80;100296.00;;;;5024992;28;87910;-62
2022/01/24 05:57:45;;;;;;;45.92;40.92;;;-5.10;96.70;-5.80;100301.00;;;;5026009;28;87435;-62
2022/01/24 06:00:15;;;;;;;45.85;40.95;;;-5.20;96.20;-5.90;100301.00;;;;5024503;28;87414;-62
2022/01/24 06:02:41;;;;;;;44.05;38.97;;;-5.20;95.80;-5.90;100287.00;;;;5023919;28;87122;-62
2022/01/24 06:05:08;;;;;;;43.33;38.80;;;-5.20;95.90;-6.00;100292.00;;;;5025165;28;87670;-62
2022/01/24 06:07:35;;;;;;;43.42;38.78;;;-5.30;95.70;-5.90;100291.00;;;;5025307;28;88113;-59
2022/01/24 06:10:01;;;;;;;41.50;37.03;;;-5.30;95.60;-5.90;100297.00;;;;5024614;28;87386;-59
2022/01/24 06:12:27;;;;;;;42.85;38.30;;;-5.30;95.50;-5.90;100287.00;;;;5025184;28;87015;-62
2022/01/24 06:14:53;;;;;;;41.80;37.30;;;-5.20;95.50;-5.90;100288.00;;;;5023976;28;88431;-62
2022/01/24 06:17:19;;;;;;;45.72;36.03;;;-5.20;95.60;-5.90;100296.00;;;;5025461;28;88341;-62
2022/01/24 06:19:45;;;;;;;42.80;38.13;;;-5.20;95.60;-5.80;100289.00;;;;5023837;28;87408;-62
2022/01/24 06:22:12;;;;;;;43.33;36.42;;;-5.10;95.50;-5.80;100289.00;;;;5025400;28;87576;-62
2022/01/24 06:24:38;;;;;;;41.38;36.92;;;-5.10;95.30;-5.90;100295.00;;;;5025155;28;87817;-62
2022/01/24 06:27:05;;;;;;;36.15;32.25;;;-5.20;95.30;-5.80;100289.00;;;;5024029;28;87470;-62
2022/01/24 06:29:31;;;;;;;36.65;32.78;;;-5.10;95.30;-5.90;100284.00;;;;5021440;28;87010;-62
2022/01/24 06:31:57;;;;;;;37.10;33.17;;;-5.20;95.30;-5.90;100284.00;;;;5023909;28;86406;-62
2022/01/24 06:34:23;;;;;;;37.67;33.67;;;-5.20;95.20;-5.90;100279.00;;;;5022113;28;87890;-61
2022/01/24 06:36:49;;;;;;;37.30;32.90;;;-5.20;95.30;-5.90;100285.00;;;;5021446;28;87347;-62
2022/01/24 06:39:15;;;;;;;37.58;33.58;;;-5.30;95.30;-6.00;100276.00;;;;5020489;28;87911;-62
2022/01/24 06:41:43;;;;;;;37.97;33.92;;;-5.30;95.30;-5.90;100277.00;;;;5021699;28;86903;-62
2022/01/24 06:44:09;;;;;;;39.33;35.20;;;-5.30;95.50;-5.90;100279.00;;;;5021537;28;88195;-62
2022/01/24 06:46:35;;;;;;;39.25;35.00;;;-5.30;95.00;-6.00;100280.00;;;;5020499;28;88201;-62
2022/01/24 06:49:01;;;;;;;37.20;33.33;;;-5.30;95.10;-5.90;100279.00;;;;5021781;28;87003;-62
2022/01/24 06:51:28;;;;;;;39.30;35.30;;;-5.20;95.20;-5.90;100281.00;;;;5021774;28;87385;-62
2022/01/24 06:53:55;;;;;;;40.55;36.13;;;-5.20;95.40;-5.90;100276.00;;;;5021349;28;87749;-62
2022/01/24 06:56:21;;;;;;;38.47;34.33;;;-5.20;95.20;-5.90;100288.00;;;;5019162;28;87460;-62
2022/01/24 06:58:47;;;;;;;39.28;35.08;;;-5.20;95.20;-5.90;100291.00;;;;5020405;28;87152;-62
2022/01/24 07:01:13;;;;;;;38.85;34.85;;;-5.20;95.10;-5.90;100298.00;;;;5020459;28;87179;-59
2022/01/24 07:03:39;;;;;;;38.85;34.65;;;-5.20;95.10;-5.80;100288.00;;;;5019931;28;88639;-62
2022/01/24 07:06:05;;;;;;;37.13;33.22;;;-5.10;95.30;-5.80;100296.00;;;;5020164;28;88382;-62
2022/01/24 07:08:31;;;;;;;37.08;33.35;;;-5.10;95.10;-5.80;100285.00;;;;5021270;28;87239;-62
2022/01/24 07:10:58;;;;;;;39.05;34.92;;;-5.10;95.00;-5.90;100286.00;;;;5020859;28;87858;-62
2022/01/24 07:13:24;;;;;;;42.45;33.60;;;-5.20;94.80;-5.90;100291.00;;;;5020415;28;87619;-62
2022/01/24 07:15:59;;;;;;;37.92;34.00;;;-5.20;94.70;-5.90;100295.00;;;;5019556;28;88650;-62
2022/01/24 07:20:57;;;;;;;37.00;33.25;;;-5.20;94.80;-5.90;100289.00;;;;5020062;28;86723;-62
2022/01/24 07:23:24;;;;;;;36.50;32.70;;;-5.20;94.60;-5.90;100296.00;;;;5020389;28;87523;-61
2022/01/24 07:25:50;;;;;;;37.40;33.58;;;-5.20;94.70;-5.90;100292.00;;;;5019284;28;87420;-62
2022/01/24 07:28:17;;;;;;;36.15;32.03;;;-5.20;94.70;-5.90;100289.00;;;;5019893;28;87933;-62
2022/01/24 07:30:45;;;;;;;36.45;32.65;;;-5.30;94.70;-6.00;100280.00;;;;5020487;28;86969;-62
2022/01/24 07:33:14;;;;;;;34.08;30.67;;;-5.30;94.70;-6.00;100288.00;;;;5020189;28;87530;-63
2022/01/24 07:35:42;;;;;;;35.15;31.55;;;-5.30;94.60;-5.90;100290.00;;;;5020805;28;87422;-63
2022/01/24 07:38:08;;;;;;;35.42;31.73;;;-5.30;94.40;-6.00;100282.00;;;;5019731;28;87048;-63
2022/01/24 07:40:41;;;;;;;36.47;32.67;;;-5.30;94.50;-5.90;100285.00;;;;5020272;28;87454;-63
2022/01/24 07:43:12;;;;;;;35.65;31.13;;;-5.20;94.50;-5.90;100283.00;;;;5021311;28;88309;-63
2022/01/24 07:45:45;;;;;;;35.97;32.30;;;-5.20;94.30;-5.90;100288.00;;;;5019909;28;86393;-63
2022/01/24 07:48:13;;;;;;;35.08;31.38;;;-5.20;94.20;-5.90;100296.00;;;;5015176;28;87072;-62
2022/01/24 07:50:43;;;;;;;35.55;31.80;;;-5.30;94.30;-5.90;100290.00;;;;5052939;27;87872;-63
2022/01/24 07:53:12;;;;;;;35.50;31.63;;;-5.20;94.30;-5.90;100296.00;;;;5019808;28;88597;-63
2022/01/24 07:55:39;;;;;;;34.83;31.23;;;-5.20;94.40;-5.90;100285.00;;;;5020046;28;88228;-63
2022/01/24 07:58:06;;;;;;;33.85;30.45;;;-5.20;93.90;-5.90;100290.00;;;;5020961;28;87027;-63
2022/01/24 08:00:33;;;;;;;32.22;28.80;;;-5.20;93.60;-5.80;100295.00;;;;5019553;28;86980;-63
2022/01/24 08:03:00;;;;;;;32.17;28.88;;;-5.10;93.60;-5.80;100284.00;;;;5019892;28;88008;-62
2022/01/24 08:05:27;;;;;;;31.95;28.55;;;-5.10;93.50;-5.80;100288.00;;;;5020525;28;87269;-63
2022/01/24 08:07:53;;;;;;;31.17;27.98;;;-5.20;93.60;-5.90;100272.00;;;;5019952;28;87388;-63
2022/01/24 08:10:20;;;;;;;32.22;28.70;;;-5.20;93.80;-5.90;100276.00;;;;5018413;28;86782;-63
2022/01/24 08:12:46;;;;;;;32.95;29.45;;;-5.30;93.90;-5.90;100278.00;;;;5045622;27;88653;-63
2022/01/24 08:15:17;;;;;;;34.42;30.73;;;-5.20;93.90;-5.80;100278.00;;;;5015232;28;87557;-60
2022/01/24 08:17:44;;;;;;;32.70;29.37;;;-5.20;93.90;-5.80;100274.00;;;;5014742;28;88339;-61
2022/01/24 08:20:13;;;;;;;33.70;30.20;;;-5.20;94.00;-5.90;100279.00;;;;5016540;28;87258;-61
2022/01/24 08:22:40;;;;;;;33.60;30.20;;;-5.20;93.90;-5.80;100286.00;;;;5009905;28;87690;-61
2022/01/24 08:25:07;;;;;;;34.47;30.88;;;-5.10;93.90;-5.80;100286.00;;;;5015269;28;87462;-61
2022/01/24 08:27:35;;;;;;;35.97;31.90;;;-5.10;93.90;-5.80;100303.00;;;;5013685;28;87232;-60
2022/01/24 08:30:06;;;;;;;32.95;29.38;;;-5.10;93.90;-5.80;100292.00;;;;5013709;28;87343;-60
2022/01/24 08:32:32;;;;;;;31.83;28.45;;;-5.20;93.60;-5.90;100283.00;;;;5015575;28;87541;-60
2022/01/24 08:34:58;;;;;;;31.25;27.95;;;-5.20;93.40;-5.90;100291.00;;;;5012704;28;87236;-59
2022/01/24 08:37:25;;;;;;;32.03;28.40;;;-5.20;93.50;-5.80;100291.00;;;;5012799;28;87440;-59
2022/01/24 08:39:51;;;;;;;32.00;28.70;;;-5.20;93.70;-5.80;100289.00;;;;5011573;28;87694;-59
2022/01/24 08:42:30;;;;;;;33.25;29.83;;;-5.10;93.90;-5.80;100286.00;;;;5018595;28;88540;-60
2022/01/24 08:47:25;;;;;;;32.10;28.80;;;-5.00;93.60;-5.70;100280.00;;;;5015934;28;87560;-60
2022/01/24 08:49:51;;;;;;;32.65;29.35;;;-5.10;93.50;-5.70;100280.00;;;;5017685;28;87117;-60
2022/01/24 08:52:18;;;;;;;31.58;28.30;;;-5.00;93.40;-5.60;100283.00;;;;5019617;28;87662;-60
2022/01/24 08:54:45;;;;;;;29.77;26.60;;;-4.90;93.30;-5.60;100266.00;;;;5005539;28;87558;-59
2022/01/24 08:57:13;;;;;;;31.20;27.88;;;-4.90;92.90;-5.60;100266.00;;;;5017359;28;87018;-60
2022/01/24 08:59:40;;;;;;;31.42;28.10;;;-4.90;93.00;-5.60;100272.00;;;;5019640;28;86561;-60
2022/01/24 09:02:07;;;;;;;30.75;27.08;;;-4.90;93.00;-5.50;100276.00;;;;5016619;28;87664;-60
2022/01/24 09:04:34;;;;;;;30.50;27.40;;;-4.80;93.00;-5.50;100267.00;;;;5017675;28;87362;-60
2022/01/24 09:07:04;;;;;;;32.15;27.65;;;-4.90;92.90;-5.50;100273.00;;;;5019207;28;88349;-60
2022/01/24 09:09:34;;;;;;;30.45;27.33;;;-4.90;92.90;-5.50;100272.00;;;;5016073;28;87444;-60
2022/01/24 09:12:04;;;;;;;31.10;27.88;;;-4.90;92.90;-5.50;100265.00;;;;5018007;28;87696;-60
2022/01/24 09:14:30;;;;;;;30.65;27.55;;;-4.90;92.80;-5.60;100263.00;;;;5018121;28;87520;-60
2022/01/24 09:16:57;;;;;;;31.63;28.42;;;-4.90;92.70;-5.60;100259.00;;;;5019282;28;87981;-60
2022/01/24 09:19:23;;;;;;;28.83;25.90;;;-4.90;92.70;-5.60;100261.00;;;;5018374;28;87093;-60
2022/01/24 09:21:50;;;;;;;30.05;27.10;;;-4.90;92.60;-5.60;100253.00;;;;5019304;28;88279;-59
2022/01/24 09:24:16;;;;;;;31.70;28.27;;;-4.90;92.70;-5.70;100257.00;;;;5019116;28;87242;-60
2022/01/24 09:26:43;;;;;;;30.58;27.27;;;-5.10;92.40;-5.60;100238.00;;;;5016455;28;87236;-60
2022/01/24 09:29:09;;;;;;;30.13;27.02;;;-5.00;92.70;-5.60;100241.00;;;;5018597;28;87053;-60
2022/01/24 09:31:35;;;;;;;29.60;26.65;;;-5.00;92.40;-5.70;100253.00;;;;5018576;28;88739;-60
2022/01/24 09:34:03;;;;;;;29.85;26.65;;;-5.10;92.50;-5.80;100239.00;;;;5018791;28;88374;-60
2022/01/24 09:36:29;;;;;;;29.23;26.13;;;-5.20;92.80;-5.80;100248.00;;;;5018473;28;86901;-61
2022/01/24 09:38:56;;;;;;;29.05;25.98;;;-5.20;93.10;-5.90;100240.00;;;;5018093;28;87327;-60
2022/01/24 09:41:22;;;;;;;29.45;26.42;;;-5.20;93.20;-5.90;100245.00;;;;5017845;28;88123;-61
2022/01/24 09:43:48;;;;;;;30.48;27.25;;;-5.20;93.30;-5.80;100251.00;;;;5018637;28;87390;-60
2022/01/24 09:46:15;;;;;;;30.83;27.63;;;-5.20;93.30;-5.90;100239.00;;;;5018598;28;87109;-60
2022/01/24 09:48:42;;;;;;;30.00;26.92;;;-5.30;93.20;-5.90;100241.00;;;;5019170;28;86386;-60
2022/01/24 09:51:09;;;;;;;31.05;27.85;;;-5.20;93.10;-5.80;100251.00;;;;5018897;28;87798;-61
2022/01/24 09:53:37;;;;;;;30.67;27.38;;;-5.20;93.20;-5.90;100234.00;;;;5015998;28;87460;-60
2022/01/24 09:56:05;;;;;;;31.85;28.42;;;-5.30;93.00;-5.90;100234.00;;;;5013996;28;88247;-60
2022/01/24 09:58:36;;;;;;;33.25;29.75;;;-5.30;93.00;-5.80;100233.00;;;;5042311;27;87590;-60
2022/01/24 10:01:07;;;;;;;31.25;28.02;;;-5.20;93.30;-5.80;100248.00;;;;5017925;28;87937;-60
2022/01/24 10:03:33;;;;;;;31.63;28.42;;;-5.20;93.20;-5.90;100225.00;;;;5038966;27;87427;-59
2022/01/24 10:06:00;;;;;;;31.80;28.50;;;-5.30;93.10;-5.90;100219.00;;;;5019031;28;87286;-61
2022/01/24 10:08:29;;;;;;;31.90;28.65;;;-5.30;93.20;-5.90;100223.00;;;;5018679;28;87053;-61
2022/01/24 10:11:01;;;;;;;30.13;26.92;;;-5.30;93.60;-5.90;100218.00;;;;5021296;28;87711;-60
2022/01/24 10:16:43;;;;;;;30.52;27.30;;;-5.30;93.70;-5.80;100202.00;;;;5021933;28;87057;-60
2022/01/24 10:19:17;;;;;;;29.17;26.15;;;-5.20;93.40;-5.80;100203.00;;;;5021708;28;87110;-62
2022/01/24 10:21:54;;;;;;;29.08;25.95;;;-5.20;93.60;-5.90;100201.00;;;;5021646;28;89180;-59
2022/01/24 10:24:48;;;;;;;29.75;26.55;;;-5.20;93.50;-5.80;100205.00;;;;5021135;28;88275;-59
2022/01/24 10:27:28;;;;;;;30.35;26.05;;;-5.20;93.50;-5.90;100212.00;;;;5020701;28;87124;-59
2022/01/24 10:30:12;;;;;;;29.42;26.17;;;-5.30;93.60;-5.90;100211.00;;;;5020914;28;87121;-59
2022/01/24 10:32:49;;;;;;;29.80;25.90;;;-5.20;93.70;-6.00;100208.00;;;;5008968;28;87925;-59
2022/01/24 10:35:38;;;;;;;28.65;25.60;;;-5.30;93.50;-5.90;100201.00;;;;5021272;28;87379;-59
2022/01/24 10:38:22;;;;;;;28.52;25.63;;;-5.20;93.80;-5.90;100195.00;;;;5016808;28;87082;-60
2022/01/24 10:43:34;;;;;;;28.27;25.40;;;-5.20;93.60;-6.00;100210.00;;;;5019756;28;89017;-59
2022/01/24 10:46:00;;;;;;;30.33;26.88;;;-5.30;93.60;-5.90;100200.00;;;;5020715;28;87453;-60
2022/01/24 10:48:42;;;;;;;28.77;25.85;;;-5.30;93.80;-5.90;100206.00;;;;5020630;28;88233;-60
2022/01/24 10:51:17;;;;;;;28.63;25.73;;;-5.30;93.80;-5.90;100193.00;;;;5022010;28;87055;-60
2022/01/24 10:53:55;;;;;;;29.15;25.23;;;-5.30;93.60;-6.10;100182.00;;;;5021774;28;87722;-61
2022/01/24 10:56:45;;;;;;;30.25;27.05;;;-5.40;93.60;-6.00;100180.00;;;;5020909;28;87539;-59
2022/01/24 10:59:11;;;;;;;29.35;26.30;;;-5.40;93.90;-6.10;100186.00;;;;5018428;28;87168;-61
2022/01/24 11:01:40;;;;;;;29.80;26.67;;;-5.40;93.90;-6.10;100185.00;;;;5020809;28;87548;-60
2022/01/24 11:04:16;;;;;;;30.70;27.58;;;-5.40;94.20;-6.00;100173.00;;;;5018356;28;87714;-59
2022/01/24 11:06:55;;;;;;;30.77;27.50;;;-5.40;94.20;-6.00;100167.00;;;;5018172;28;87463;-59
2022/01/24 11:09:26;;;;;;;31.23;27.88;;;-5.30;93.90;-6.00;100177.00;;;;5015508;28;88893;-59
2022/01/24 11:11:59;;;;;;;32.05;28.55;;;-5.30;93.80;-6.00;100161.00;;;;5017151;28;87283;-59
2022/01/24 11:14:28;;;;;;;30.67;27.42;;;-5.30;93.90;-6.00;100164.00;;;;5007923;28;88688;-59
2022/01/24 11:16:58;;;;;;;30.45;27.25;;;-5.30;93.90;-6.00;100168.00;;;;5015286;28;87187;-60
2022/01/24 11:19:40;;;;;;;29.77;26.58;;;-5.30;93.90;-6.00;100173.00;;;;5019105;28;88034;-60
2022/01/24 11:22:07;;;;;;;30.02;26.75;;;-5.40;93.60;-6.00;100183.00;;;;5020080;28;87041;-60
2022/01/24 11:24:40;;;;;;;31.08;27.67;;;-5.30;93.90;-6.00;100179.00;;;;5020266;28;88375;-60
2022/01/24 11:27:09;;;;;;;29.48;26.48;;;-5.40;93.80;-6.00;100165.00;;;;5019392;28;88863;-59
2022/01/24 11:29:36;;;;;;;28.88;25.77;;;-5.40;93.80;-6.10;100175.00;;;;5020349;28;87140;-61
2022/01/24 11:32:16;;;;;;;28.95;25.88;;;-5.40;93.90;-6.20;100169.00;;;;5021064;28;86537;-59
2022/01/24 11:34:50;;;;;;;29.13;26.20;;;-5.50;93.80;-6.20;100173.00;;;;5020101;28;87961;-60
2022/01/24 11:37:55;;;;;;;30.05;26.85;;;-5.60;94.10;-6.30;100163.00;;;;5020669;28;87340;-59
2022/01/24 11:40:23;;;;;;;28.00;25.00;;;-5.60;94.10;-6.30;100160.00;;;;4984256;28;88637;-59
2022/01/24 11:42:50;;;;;;;29.23;25.75;;;-5.60;94.00;-6.30;100146.00;;;;4998351;28;87254;-61
2022/01/24 11:45:45;;;;;;;28.70;25.65;;;-5.60;94.00;-6.40;100156.00;;;;5008730;28;88823;-61
2022/01/24 11:48:20;;;;;;;28.35;25.30;;;-5.70;94.10;-6.40;100146.00;;;;5019349;28;87256;-59
2022/01/24 11:51:10;;;;;;;28.38;25.38;;;-5.80;94.20;-6.40;100136.00;;;;5020423;28;86937;-60
2022/01/24 11:53:44;;;;;;;29.65;26.75;;;-5.80;94.20;-6.40;100145.00;;;;5021240;28;87377;-59
2022/01/24 11:56:27;;;;;;;30.95;27.58;;;-5.80;94.40;-6.40;100136.00;;;;5019043;28;87881;-60
2022/01/24 11:59:22;;;;;;;30.40;27.10;;;-5.70;94.40;-6.40;100133.00;;;;5019935;28;86773;-60
2022/01/24 12:02:10;;;;;;;29.67;26.63;;;-5.80;94.20;-6.50;100133.00;;;;5019854;28;86919;-61
2022/01/24 12:04:58;;;;;;;29.88;25.90;;;-5.80;94.50;-6.40;100131.00;;;;5014876;28;87146;-61
2022/01/24 12:07:32;;;;;;;30.08;26.92;;;-5.80;94.50;-6.40;100121.00;;;;5019893;28;88875;-61
2022/01/24 12:10:33;;;;;;;29.52;26.27;;;-5.80;94.40;-6.40;100123.00;;;;5019560;28;89126;-61
2022/01/24 12:13:26;;;;;;;34.38;28.92;;;-5.70;94.40;-6.40;100113.00;;;;5019147;28;87473;-60
2022/01/24 12:15:56;;;;;;;31.30;27.90;;;-5.80;94.40;-6.50;100114.00;;;;5020062;28;87960;-60
2022/01/24 12:18:45;;;;;;;31.47;27.93;;;-5.80;94.50;-6.50;100115.00;;;;5019393;28;88734;-60
2022/01/24 12:21:24;;;;;;;30.88;27.25;;;-5.80;94.40;-6.40;100114.00;;;;5019584;28;87490;-61
2022/01/24 12:23:58;;;;;;;31.88;27.60;;;-5.70;94.30;-6.40;100108.00;;;;5020172;28;87867;-60
2022/01/24 12:26:47;;;;;;;32.90;29.40;;;-5.70;94.20;-6.40;100099.00;;;;5019162;28;86541;-60
2022/01/24 12:29:25;;;;;;;32.63;29.13;;;-5.70;94.30;-6.40;100105.00;;;;5018178;28;87756;-60
2022/01/24 12:31:59;;;;;;;31.90;28.55;;;-5.70;94.40;-6.40;100108.00;;;;5017648;28;87737;-60
2022/01/24 12:34:45;;;;;;;31.10;27.80;;;-5.80;94.40;-6.50;100102.00;;;;5019369;28;87957;-60
2022/01/24 12:37:29;;;;;;;31.35;28.08;;;-5.80;94.50;-6.50;100106.00;;;;5014189;28;86988;-60